Time;durP1;ratioP1;P1;durP2;ratioP2;P2;SDS_P1;SDS_P2;PMS_P1;PMS_P2;Temp;Humidity;BMP_temperature;BMP_pressure;BME280_temperature;BME280_humidity;BME280_pressure;Samples;Min_cycle;Max_cycle;Signal;HPM_P1;HPM_P2
2021/09/26 07:00:30;;;;;;;9.35;5.47;;;;;;;17.01;88.04;98824.44;6034813;23;20916;31
2021/09/26 07:02:55;;;;;;;6.38;5.78;;;;;;;17.30;86.05;98822.31;4906089;29;20044;-73
2021/09/26 07:05:22;;;;;;;9.77;6.68;;;;;;;17.39;85.09;98830.63;4904789;29;20020;-72
2021/09/26 07:07:47;;;;;;;10.27;5.50;;;;;;;17.53;84.02;98837.84;4911100;29;20112;-73
2021/09/26 07:10:13;;;;;;;8.73;5.75;;;;;;;17.72;83.20;98843.97;4905711;29;20500;-73
2021/09/26 07:12:38;;;;;;;10.15;5.70;;;;;;;17.78;83.33;98836.75;4905113;29;20029;-73
2021/09/26 07:15:04;;;;;;;7.88;5.63;;;;;;;18.04;82.75;98846.91;4908633;29;20024;-76
2021/09/26 07:17:31;;;;;;;6.40;5.25;;;;;;;18.43;80.02;98836.25;4906628;29;20060;-77
2021/09/26 07:19:56;;;;;;;12.73;5.50;;;;;;;18.21;80.91;98846.94;4923847;29;20116;-76
2021/09/26 07:22:23;;;;;;;9.60;6.03;;;;;;;18.21;80.85;98831.19;4946085;28;20024;-76
2021/09/26 07:24:53;;;;;;;9.18;5.32;;;;;;;18.40;80.73;98843.41;4943889;29;20019;-77
2021/09/26 07:27:23;;;;;;;10.13;5.97;;;;;;;18.75;79.66;98847.78;4944227;29;20130;-77
2021/09/26 07:29:48;;;;;;;6.03;5.25;;;;;;;19.12;77.77;98851.19;4943374;29;20039;-77
2021/09/26 07:32:15;;;;;;;8.68;4.95;;;;;;;18.58;79.09;98855.66;4946262;28;20016;-76
2021/09/26 07:34:41;;;;;;;12.65;5.30;;;;;;;19.10;78.12;98847.81;4943629;29;20023;-77
2021/09/26 07:37:06;;;;;;;5.28;4.72;;;;;;;18.96;77.87;98847.66;4942740;29;20492;-76
2021/09/26 07:39:32;;;;;;;6.03;4.63;;;;;;;19.07;78.08;98842.69;4947144;29;20031;-77
2021/09/26 07:41:57;;;;;;;4.35;4.00;;;;;;;19.74;76.04;98843.56;4943522;29;20026;-76
2021/09/26 07:44:23;;;;;;;15.48;12.07;;;;;;;20.17;73.97;98842.06;4944815;28;20023;-77
2021/09/26 07:46:48;;;;;;;5.47;4.68;;;;;;;20.34;73.03;98853.41;4948632;29;20035;-77
2021/09/26 07:49:15;;;;;;;5.97;4.25;;;;;;;20.44;72.19;98851.94;4947104;29;20102;-77
2021/09/26 07:51:41;;;;;;;8.20;4.78;;;;;;;20.46;71.56;98858.84;4945518;29;20023;-77
2021/09/26 07:54:06;;;;;;;9.23;4.82;;;;;;;20.20;72.48;98870.81;4942310;29;20066;-77
2021/09/26 07:56:32;;;;;;;5.82;4.38;;;;;;;20.17;72.43;98873.63;4945903;29;20484;-77
2021/09/26 07:58:57;;;;;;;5.25;4.47;;;;;;;20.24;72.80;98874.97;4945451;29;20023;-77
2021/09/26 08:01:22;;;;;;;6.72;4.70;;;;;;;20.25;72.41;98879.28;4943840;29;20428;-77
2021/09/26 08:03:48;;;;;;;4.82;4.22;;;;;;;20.01;73.37;98878.03;4939348;29;20074;-77
2021/09/26 08:06:14;;;;;;;6.80;4.82;;;;;;;19.48;75.75;98874.69;4944245;29;20031;-77
2021/09/26 08:08:40;;;;;;;6.28;4.57;;;;;;;19.25;76.88;98878.53;4935132;29;20083;-77
2021/09/26 08:11:05;;;;;;;6.38;4.68;;;;;;;19.44;76.68;98878.44;4946936;29;20027;-77
2021/09/26 08:13:31;;;;;;;8.73;4.43;;;;;;;19.63;76.64;98880.97;4937515;28;20114;-77
2021/09/26 08:15:56;;;;;;;9.50;4.78;;;;;;;19.76;76.04;98879.34;4948309;29;20032;-77
2021/09/26 08:18:21;;;;;;;7.93;4.50;;;;;;;19.93;75.59;98896.03;4941184;28;20106;-76
2021/09/26 08:20:47;;;;;;;5.80;3.92;;;;;;;19.78;76.68;98897.69;4946026;29;20398;-76
2021/09/26 08:23:13;;;;;;;5.63;4.60;;;;;;;19.78;75.76;98908.22;4944298;29;20033;-76
2021/09/26 08:25:38;;;;;;;5.13;4.63;;;;;;;20.00;75.34;98916.63;4944511;28;20035;-77
2021/09/26 08:28:04;;;;;;;9.25;4.85;;;;;;;20.32;74.30;98923.72;4947381;29;20481;-76
2021/09/26 08:30:29;;;;;;;27.65;18.10;;;;;;;20.61;72.56;98930.84;4945705;29;20024;-76
2021/09/26 08:32:54;;;;;;;30.98;18.75;;;;;;;20.91;72.14;98940.56;4943291;29;20039;-76
2021/09/26 08:35:20;;;;;;;9.02;4.82;;;;;;;21.25;70.10;98937.66;4942811;29;20032;-76
2021/09/26 08:37:45;;;;;;;7.80;4.22;;;;;;;20.91;71.80;98941.41;4945453;29;20067;-77
2021/09/26 08:40:11;;;;;;;10.57;5.10;;;;;;;20.78;72.47;98938.63;4940272;29;20808;-77
2021/09/26 08:42:37;;;;;;;8.20;4.68;;;;;;;21.87;68.24;98941.91;4946371;28;20397;-76
2021/09/26 08:45:09;;;;;;;8.38;4.57;;;;;;;22.53;65.44;98949.19;4951495;29;20412;-77
2021/09/26 08:47:39;;;;;;;9.15;4.82;;;;;;;22.29;65.23;98944.56;4948544;29;20505;-77
2021/09/26 08:50:09;;;;;;;8.73;4.57;;;;;;;21.32;69.53;98959.25;4946304;29;20039;-77
2021/09/26 08:52:34;;;;;;;7.00;4.10;;;;;;;22.24;67.45;98954.56;4947979;28;20030;-77
2021/09/26 08:54:59;;;;;;;6.53;3.97;;;;;;;23.11;64.59;98948.06;4943695;29;20451;-77
2021/09/26 08:57:26;;;;;;;6.70;3.95;;;;;;;23.30;63.82;98945.88;4949532;29;20026;-77
2021/09/26 08:59:52;;;;;;;5.88;4.22;;;;;;;22.98;65.11;98953.31;4953719;28;20142;-77
2021/09/26 09:02:18;;;;;;;9.30;4.45;;;;;;;22.56;66.58;98954.28;4950758;28;20154;-77
2021/09/26 09:04:43;;;;;;;4.65;3.83;;;;;;;22.33;67.02;98959.22;4948022;29;20106;-77
2021/09/26 09:07:11;;;;;;;7.00;4.93;;;;;;;21.32;69.98;98963.69;4947491;29;20589;-77
2021/09/26 09:09:53;;;;;;;11.40;4.65;;;;;;;21.33;70.95;98955.72;4949701;29;20090;-77
2021/09/26 09:12:28;;;;;;;11.05;4.93;;;;;;;21.56;69.97;98962.22;4939569;29;20071;-77
2021/09/26 09:14:55;;;;;;;10.43;4.32;;;;;;;21.69;69.14;98952.63;4951025;29;20023;-77
2021/09/26 09:17:34;;;;;;;8.35;4.22;;;;;;;21.64;70.89;98975.81;4950035;28;20053;-77
2021/09/26 09:20:12;;;;;;;8.05;4.32;;;;;;;21.45;72.44;98975.22;4951210;29;20027;-77
2021/09/26 09:22:37;;;;;;;8.73;4.97;;;;;;;21.60;69.96;98979.56;4947839;29;20023;-77
2021/09/26 09:25:03;;;;;;;15.02;5.25;;;;;;;21.46;71.04;98971.63;4947424;29;20024;-77
2021/09/26 09:27:28;;;;;;;10.00;4.95;;;;;;;21.46;72.26;98966.34;4943210;29;20022;-77
2021/09/26 09:29:53;;;;;;;7.38;5.32;;;;;;;20.82;74.67;98964.81;4944211;29;20560;-77
2021/09/26 09:32:22;;;;;;;7.93;5.03;;;;;;;21.00;74.22;98969.03;4948920;29;20544;-77
2021/09/26 09:34:48;;;;;;;7.75;4.85;;;;;;;21.17;73.00;98965.41;4945515;29;20094;-77
2021/09/26 09:37:20;;;;;;;11.55;5.10;;;;;;;21.34;72.49;98975.00;4946043;29;20491;-77
2021/09/26 09:40:07;;;;;;;10.45;5.53;;;;;;;21.36;72.41;98975.75;4945453;29;20441;-77
2021/09/26 09:42:40;;;;;;;14.25;5.32;;;;;;;21.48;71.09;98975.03;4946386;29;20019;-77
2021/09/26 09:45:16;;;;;;;7.90;5.55;;;;;;;21.49;70.86;98971.44;4944592;29;20030;-77
2021/09/26 09:48:01;;;;;;;8.38;5.00;;;;;;;21.74;69.05;98978.75;4946757;29;20035;-77
2021/09/26 09:50:28;;;;;;;13.73;6.35;;;;;;;21.59;70.19;98983.16;4952362;29;20062;-77
2021/09/26 09:52:54;;;;;;;8.40;5.38;;;;;;;21.65;68.44;98982.78;4942941;29;20063;-77
2021/09/26 09:55:25;;;;;;;7.80;5.18;;;;;;;21.44;69.81;98976.16;4948141;28;20062;-77
2021/09/26 09:57:50;;;;;;;13.15;5.70;;;;;;;21.34;70.56;98980.28;4941202;29;20020;-77
2021/09/26 10:00:19;;;;;;;9.35;5.45;;;;;;;21.15;70.94;98973.41;4950010;29;20024;-76
2021/09/26 10:02:45;;;;;;;12.60;6.00;;;;;;;20.90;70.20;98973.97;4945929;29;20031;-77
2021/09/26 10:05:34;;;;;;;10.10;6.05;;;;;;;21.09;71.13;98968.50;4950825;28;20110;-77
2021/09/26 10:08:00;;;;;;;7.82;5.25;;;;;;;21.06;71.03;98976.56;4940076;29;20094;-77
2021/09/26 10:10:32;;;;;;;8.13;5.38;;;;;;;21.12;71.09;98978.84;4946368;28;20031;-77
2021/09/26 10:13:12;;;;;;;10.38;5.18;;;;;;;20.76;72.43;98977.38;4951521;29;20429;-77
2021/09/26 10:15:38;;;;;;;7.82;5.32;;;;;;;20.49;73.44;98986.81;4946020;29;20030;-77
2021/09/26 10:18:03;;;;;;;8.75;5.85;;;;;;;20.24;74.79;98990.75;4948859;29;20036;-77
2021/09/26 10:20:29;;;;;;;7.57;5.50;;;;;;;20.25;75.11;98971.41;4941722;29;20023;-76
2021/09/26 10:22:55;;;;;;;9.90;5.97;;;;;;;20.31;74.43;98969.34;4948047;29;20034;-77
2021/09/26 10:25:20;;;;;;;9.95;6.40;;;;;;;20.17;74.83;98970.13;4943296;28;20553;-77
2021/09/26 10:27:47;;;;;;;10.18;6.88;;;;;;;20.27;74.14;98980.06;4945912;29;20024;-76
2021/09/26 10:30:13;;;;;;;15.05;6.95;;;;;;;20.25;74.83;98981.06;4939578;29;20027;-76
2021/09/26 10:32:40;;;;;;;7.40;6.28;;;;;;;19.99;74.87;98966.69;4944287;29;20038;-77
2021/09/26 10:35:06;;;;;;;8.18;6.75;;;;;;;20.10;75.30;98976.63;4941297;29;20040;-77
2021/09/26 10:37:32;;;;;;;9.85;6.63;;;;;;;20.14;77.61;98973.75;4946498;29;20035;-73
2021/09/26 10:39:58;;;;;;;11.38;7.88;;;;;;;20.19;76.47;98990.16;4943792;29;20122;-77
2021/09/26 10:42:24;;;;;;;8.32;7.32;;;;;;;20.27;77.50;98989.75;4949529;28;20573;-77
2021/09/26 10:45:02;;;;;;;7.75;6.65;;;;;;;20.20;75.88;98991.84;4946367;29;20146;-77
2021/09/26 10:47:29;;;;;;;8.70;7.15;;;;;;;20.32;74.93;98997.41;4940506;29;20058;-77
2021/09/26 10:50:01;;;;;;;10.30;7.10;;;;;;;19.97;74.03;98979.94;4943405;29;20068;-77
2021/09/26 10:52:32;;;;;;;8.68;6.80;;;;;;;20.16;74.82;98971.91;4942805;29;20369;-77
2021/09/26 10:55:23;;;;;;;7.75;6.40;;;;;;;20.53;73.12;98973.41;4948537;29;20082;-77
2021/09/26 10:58:07;;;;;;;10.40;7.57;;;;;;;20.46;73.13;98968.53;4940960;28;20027;-77
2021/09/26 11:00:50;;;;;;;8.63;7.53;;;;;;;20.25;75.93;98968.75;4945366;28;20077;-77
2021/09/26 11:03:18;;;;;;;10.88;6.97;;;;;;;20.46;74.96;98963.28;4939743;28;20516;-77
2021/09/26 11:05:54;;;;;;;10.07;7.00;;;;;;;20.46;73.65;98965.91;4942149;28;20023;-77
2021/09/26 11:08:25;;;;;;;10.23;7.30;;;;;;;20.19;74.50;98961.22;4945021;29;20023;-77
2021/09/26 11:10:53;;;;;;;9.80;8.00;;;;;;;20.13;76.01;98950.19;4939654;29;20040;-77
2021/09/26 11:13:32;;;;;;;8.30;7.00;;;;;;;20.22;75.74;98955.78;4951596;29;20023;-77
2021/09/26 11:16:15;;;;;;;8.30;7.35;;;;;;;20.40;73.74;98953.06;4950645;29;20094;-77
2021/09/26 11:18:54;;;;;;;9.82;7.20;;;;;;;20.14;74.90;98952.72;4942948;29;20043;-77
2021/09/26 11:21:35;;;;;;;7.43;6.72;;;;;;;20.33;74.72;98947.31;4948441;29;20429;-77
2021/09/26 11:24:01;;;;;;;10.18;7.00;;;;;;;19.67;77.44;98937.69;4970805;28;20531;-73
2021/09/26 11:26:27;;;;;;;13.02;8.02;;;;;;;19.65;78.24;98923.78;4944888;29;20150;-72
2021/09/26 11:28:59;;;;;;;7.18;6.47;;;;;;;19.82;75.23;98914.13;4948509;29;20113;-73
2021/09/26 11:31:40;;;;;;;10.15;6.18;;;;;;;19.86;74.35;98915.69;4944853;29;20488;-73
2021/09/26 11:34:05;;;;;;;7.10;6.40;;;;;;;19.72;75.95;98914.63;4941346;29;20498;-74
2021/09/26 11:36:31;;;;;;;11.10;7.45;;;;;;;20.13;73.44;98897.56;4948573;29;20117;-74
2021/09/26 11:39:28;;;;;;;8.02;6.38;;;;;;;20.22;73.80;98892.63;4939405;29;20027;-73
2021/09/26 11:41:53;;;;;;;7.13;6.43;;;;;;;20.26;74.13;98893.31;4942299;28;20473;-73
2021/09/26 11:44:19;;;;;;;7.13;6.43;;;;;;;20.33;75.84;98888.56;4940751;28;20015;-74
2021/09/26 11:46:53;;;;;;;11.30;6.65;;;;;;;20.26;74.52;98888.91;4943136;28;20027;-74
2021/09/26 11:49:19;;;;;;;10.63;6.70;;;;;;;20.05;75.59;98884.81;4954203;28;20510;-74
2021/09/26 11:51:48;;;;;;;10.05;7.03;;;;;;;19.96;75.41;98890.56;4943311;28;20028;-74
2021/09/26 11:54:15;;;;;;;10.77;7.27;;;;;;;19.96;76.50;98890.56;4943574;29;20424;-74
2021/09/26 11:56:42;;;;;;;9.15;6.80;;;;;;;19.95;76.89;98891.50;4938474;29;20035;-73
2021/09/26 11:59:10;;;;;;;7.65;6.20;;;;;;;19.90;75.23;98890.91;4945325;29;20042;-73
2021/09/26 12:01:37;;;;;;;7.35;6.25;;;;;;;19.87;76.00;98898.97;4936588;28;20031;-73
2021/09/26 12:04:20;;;;;;;9.13;6.80;;;;;;;19.73;77.61;98897.94;4944053;29;20039;-73
2021/09/26 12:06:59;;;;;;;8.27;6.63;;;;;;;19.62;79.36;98895.00;4936484;29;20031;-73
2021/09/26 12:09:40;;;;;;;11.07;8.15;;;;;;;19.66;79.62;98893.94;4940998;29;20027;-73
2021/09/26 12:12:10;;;;;;;8.18;7.35;;;;;;;19.61;79.93;98890.69;4941073;29;20159;-73
2021/09/26 12:14:36;;;;;;;13.02;8.52;;;;;;;19.58;80.81;98896.09;4939601;28;20027;-73
2021/09/26 12:17:04;;;;;;;11.05;8.25;;;;;;;19.52;81.39;98891.16;4941374;29;20031;-73
2021/09/26 12:19:31;;;;;;;9.82;7.45;;;;;;;19.70;80.65;98886.72;4942138;28;20027;-73
2021/09/26 12:22:01;;;;;;;12.02;8.88;;;;;;;19.84;81.45;98886.84;4951524;29;20504;-73
2021/09/26 12:24:30;;;;;;;;;;;;;;;20.05;81.22;98879.56;4946595;28;20019;-73
2021/09/26 12:26:55;;;;;;;10.73;8.67;;;;;;;20.34;80.86;98875.31;4952970;29;19965;-73
2021/09/26 12:29:27;;;;;;;11.35;8.30;;;;;;;20.66;79.59;98873.50;4949302;28;20267;-73
2021/09/26 12:31:57;;;;;;;8.82;7.75;;;;;;;21.03;76.84;98880.13;4949190;28;20031;-73
2021/09/26 12:34:35;;;;;;;9.90;8.00;;;;;;;21.16;75.78;98872.31;4944344;28;20023;-73
2021/09/26 12:37:02;;;;;;;9.60;6.95;;;;;;;21.67;72.26;98874.56;4945925;29;20034;-74
2021/09/26 12:39:39;;;;;;;19.45;12.52;;;;;;;22.17;67.95;98879.31;4947291;29;20026;-73
2021/09/26 12:42:04;;;;;;;6.68;5.97;;;;;;;22.50;66.57;98870.19;4945216;29;20059;-73
2021/09/26 12:44:37;;;;;;;7.05;5.65;;;;;;;22.66;65.71;98873.50;4948056;29;20023;-73
2021/09/26 12:47:09;;;;;;;6.63;5.30;;;;;;;22.98;63.90;98870.56;4945436;29;20035;-73
2021/09/26 12:49:37;;;;;;;7.95;5.93;;;;;;;22.65;65.44;98866.53;4948566;29;20025;-73
2021/09/26 12:52:09;;;;;;;10.10;5.80;;;;;;;22.96;64.56;98856.56;4942506;29;20027;-74
2021/09/26 12:54:37;;;;;;;7.20;5.82;;;;;;;23.40;63.35;98860.63;4949369;29;20051;-74
2021/09/26 12:57:10;;;;;;;7.35;5.60;;;;;;;23.26;62.44;98854.50;4940147;29;20063;-74
2021/09/26 12:59:39;;;;;;;7.63;6.07;;;;;;;23.30;62.37;98855.13;4948295;29;20055;-71
2021/09/26 13:02:19;;;;;;;8.07;6.15;;;;;;;22.46;64.61;98863.41;4945802;29;20028;-73
2021/09/26 13:05:01;;;;;;;6.70;5.70;;;;;;;22.88;63.43;98858.88;4945860;29;20043;-72
2021/09/26 13:07:29;;;;;;;8.50;6.20;;;;;;;22.80;65.11;98854.94;4942928;29;20567;-73
2021/09/26 13:10:01;;;;;;;8.10;6.00;;;;;;;23.03;63.63;98847.28;4942146;29;20106;-76
2021/09/26 13:12:40;;;;;;;10.40;6.57;;;;;;;22.97;64.23;98847.72;4949051;28;20102;-76
2021/09/26 13:15:14;;;;;;;6.85;6.00;;;;;;;23.32;63.75;98842.66;4943357;29;20031;-79
2021/09/26 13:17:42;;;;;;;10.35;6.28;;;;;;;23.33;61.75;98842.53;4948427;28;20128;-79
2021/09/26 13:20:23;;;;;;;6.97;5.90;;;;;;;23.27;61.30;98850.06;4942518;29;20027;-79
2021/09/26 13:22:48;;;;;;;8.48;5.70;;;;;;;23.36;61.84;98848.59;4946149;29;20063;-79
2021/09/26 13:25:13;;;;;;;6.75;5.82;;;;;;;23.16;61.25;98842.88;4961948;28;20070;-78
2021/09/26 13:28:03;;;;;;;7.95;6.05;;;;;;;23.25;61.11;98836.94;4945464;28;20110;-78
2021/09/26 13:30:39;;;;;;;9.05;6.40;;;;;;;23.08;62.56;98829.31;4946628;28;20023;-78
2021/09/26 13:33:11;;;;;;;8.25;5.97;;;;;;;23.45;61.52;98832.06;4946137;28;20094;-77
2021/09/26 13:35:38;;;;;;;8.05;5.72;;;;;;;22.78;61.99;98833.06;4949750;28;20038;-77
2021/09/26 13:38:25;;;;;;;6.40;5.80;;;;;;;23.05;61.84;98827.72;4943612;29;20023;-77
2021/09/26 13:41:10;;;;;;;6.43;5.65;;;;;;;23.05;63.17;98824.25;4946872;29;20031;-76
2021/09/26 13:43:44;;;;;;;6.35;5.70;;;;;;;23.05;62.44;98834.81;4962803;28;20510;-77
2021/09/26 13:46:10;;;;;;;13.00;9.68;;;;;;;22.67;63.26;98834.72;4942418;28;20047;-76
2021/09/26 13:48:39;;;;;;;8.65;5.95;;;;;;;22.74;64.22;98831.56;4946519;29;20027;-77
2021/09/26 13:51:09;;;;;;;9.07;5.88;;;;;;;23.03;64.53;98836.72;4940768;29;20492;-77
2021/09/26 13:53:36;;;;;;;11.70;5.80;;;;;;;23.17;62.70;98820.78;4946407;28;20027;-75
2021/09/26 13:56:01;;;;;;;9.45;5.82;;;;;;;23.50;62.85;98819.38;4939754;29;20042;-77
2021/09/26 13:58:27;;;;;;;8.05;5.75;;;;;;;22.97;63.51;98822.13;4947347;28;20019;-75
2021/09/26 14:00:54;;;;;;;6.30;5.70;;;;;;;23.05;63.59;98816.31;4938385;29;20032;-78
2021/09/26 14:03:20;;;;;;;8.57;5.50;;;;;;;23.39;62.53;98811.34;4946314;28;20020;-78
2021/09/26 14:05:45;;;;;;;6.30;5.45;;;;;;;23.65;60.71;98813.03;4942701;29;20028;-78
2021/09/26 14:08:11;;;;;;;6.13;5.53;;;;;;;23.55;61.00;98819.91;4941702;29;20480;-78
2021/09/26 14:10:36;;;;;;;7.05;5.80;;;;;;;23.72;61.06;98816.06;4942639;29;20038;-79
2021/09/26 14:13:04;;;;;;;6.80;5.20;;;;;;;23.74;62.07;98809.72;4944514;29;20028;-79
2021/09/26 14:15:34;;;;;;;6.88;5.85;;;;;;;24.56;58.79;98809.94;4946042;29;20110;-79
2021/09/26 14:18:00;;;;;;;6.57;4.88;;;;;;;24.20;58.92;98809.03;4946503;28;20496;-79
2021/09/26 14:20:27;;;;;;;6.00;5.38;;;;;;;24.40;59.47;98806.75;4945476;29;20023;-79
2021/09/26 14:22:52;;;;;;;5.85;5.35;;;;;;;24.46;59.18;98814.22;4940322;29;20485;-79
2021/09/26 14:25:17;;;;;;;7.35;5.18;;;;;;;24.24;59.50;98807.84;4944338;29;20066;-79
2021/09/26 14:27:42;;;;;;;6.45;5.05;;;;;;;24.29;59.62;98803.06;4942949;29;20027;-79
2021/09/26 14:30:08;;;;;;;6.85;5.22;;;;;;;24.25;59.30;98798.94;4951133;29;20103;-79
2021/09/26 14:32:34;;;;;;;5.40;4.63;;;;;;;24.38;60.67;98795.44;4945647;28;20031;-79
2021/09/26 14:35:01;;;;;;;6.78;5.15;;;;;;;24.50;58.94;98791.84;4946061;29;20039;-79
2021/09/26 14:37:26;;;;;;;6.97;4.90;;;;;;;24.34;59.46;98784.19;4944287;28;20031;-79
2021/09/26 14:39:51;;;;;;;6.15;5.28;;;;;;;24.26;59.78;98787.38;4944379;29;20038;-79
2021/09/26 14:42:17;;;;;;;6.75;5.32;;;;;;;24.19;59.47;98786.16;4940759;29;20024;-79
2021/09/26 14:44:43;;;;;;;6.25;5.03;;;;;;;24.33;60.13;98785.16;4947017;29;20050;-79
2021/09/26 14:47:08;;;;;;;6.05;5.32;;;;;;;24.28;59.35;98780.19;4952249;29;20471;-79
2021/09/26 14:49:33;;;;;;;6.63;5.22;;;;;;;24.15;59.45;98790.00;4946083;29;20023;-79
2021/09/26 14:51:59;;;;;;;5.72;4.90;;;;;;;23.50;60.60;98792.94;4948114;29;20039;-79
2021/09/26 14:54:25;;;;;;;6.35;4.60;;;;;;;23.23;61.52;98785.97;4944304;29;20027;-79
2021/09/26 14:56:51;;;;;;;11.18;7.22;;;;;;;23.16;61.90;98782.06;4948309;29;20118;-79
2021/09/26 14:59:18;;;;;;;7.38;5.03;;;;;;;23.09;62.89;98788.72;4945563;28;20119;-79
2021/09/26 15:01:44;;;;;;;5.63;5.00;;;;;;;22.99;62.50;98782.38;4944936;29;20066;-79
2021/09/26 15:04:12;;;;;;;5.65;4.35;;;;;;;22.73;63.17;98779.69;4940218;29;20486;-80
2021/09/26 15:06:39;;;;;;;6.00;4.78;;;;;;;22.89;63.43;98786.59;4942062;29;20028;-80
2021/09/26 15:09:05;;;;;;;6.43;5.25;;;;;;;22.87;62.75;98788.47;4942301;29;20038;-79
2021/09/26 15:11:32;;;;;;;5.13;4.70;;;;;;;23.07;63.10;98782.72;4945540;28;20035;-79
2021/09/26 15:13:58;;;;;;;6.47;5.07;;;;;;;23.04;61.32;98790.84;4939314;29;20513;-80
2021/09/26 15:16:24;;;;;;;5.25;4.75;;;;;;;22.94;62.51;98793.25;4947407;28;20122;-80
2021/09/26 15:18:50;;;;;;;4.68;4.22;;;;;;;22.90;61.19;98796.22;4944745;29;20117;-81
2021/09/26 15:21:16;;;;;;;7.85;4.45;;;;;;;22.82;60.70;98805.50;4948930;28;20433;-80
2021/09/26 15:23:42;;;;;;;6.50;4.90;;;;;;;22.56;63.39;98814.31;4943733;29;20050;-80
2021/09/26 15:26:08;;;;;;;7.03;5.38;;;;;;;22.09;66.73;98820.88;4944795;29;20023;-80
2021/09/26 15:28:34;;;;;;;6.63;5.72;;;;;;;21.75;67.81;98820.38;4948250;29;20523;-80
2021/09/26 15:31:01;;;;;;;8.23;5.70;;;;;;;21.73;68.96;98822.28;4947294;29;20047;-80
2021/09/26 15:33:28;;;;;;;8.40;5.93;;;;;;;21.12;71.03;98830.44;4935984;29;20027;-80
2021/09/26 15:35:53;;;;;;;5.90;5.32;;;;;;;21.16;70.68;98837.22;4942197;28;20482;-79
2021/09/26 15:38:19;;;;;;;9.50;6.28;;;;;;;21.06;70.75;98842.19;4943833;29;20051;-79
2021/09/26 15:40:47;;;;;;;9.10;5.72;;;;;;;20.73;72.31;98848.50;4947486;29;20035;-79
2021/09/26 15:43:22;;;;;;;8.38;5.90;;;;;;;20.59;73.08;98843.19;4947472;29;20110;-81
2021/09/26 15:45:50;;;;;;;7.97;5.50;;;;;;;20.63;73.10;98849.97;4945363;29;20406;-80
2021/09/26 15:48:21;;;;;;;6.20;5.60;;;;;;;20.63;73.44;98863.16;4939963;29;20024;-80
2021/09/26 15:50:47;;;;;;;8.20;6.05;;;;;;;20.46;73.70;98868.50;4951964;29;20050;-80
2021/09/26 15:53:16;;;;;;;7.25;6.55;;;;;;;20.44;74.08;98860.69;4954816;28;20027;-80
2021/09/26 15:55:45;;;;;;;6.88;5.47;;;;;;;20.52;73.08;98858.50;4915655;29;20032;-80
2021/09/26 15:58:12;;;;;;;6.20;5.55;;;;;;;20.40;74.05;98871.47;4946480;28;20027;-80
2021/09/26 16:00:38;;;;;;;7.38;6.20;;;;;;;20.18;74.76;98864.78;4950395;29;20040;-80
2021/09/26 16:03:05;;;;;;;6.68;5.90;;;;;;;20.22;75.20;98866.31;4944558;29;20024;-81
2021/09/26 16:05:34;;;;;;;10.20;6.65;;;;;;;20.10;76.03;98860.88;4945395;29;20024;-76
2021/09/26 16:08:00;;;;;;;8.43;6.38;;;;;;;20.10;75.36;98860.88;4944545;29;20030;-78
2021/09/26 16:10:26;;;;;;;9.70;6.22;;;;;;;19.68;76.93;98865.78;4963432;28;20118;-78
2021/09/26 16:12:52;;;;;;;6.47;5.80;;;;;;;19.82;76.85;98870.28;4942827;29;20053;-78
2021/09/26 16:15:23;;;;;;;7.90;6.82;;;;;;;19.74;77.32;98860.19;4946126;28;20070;-78
2021/09/26 16:17:49;;;;;;;8.20;6.47;;;;;;;19.66;77.46;98865.00;4943179;29;20577;-78
2021/09/26 16:20:18;;;;;;;9.32;7.07;;;;;;;19.52;78.20;98870.97;4946179;29;20027;-78
2021/09/26 16:22:45;;;;;;;8.87;6.50;;;;;;;19.54;78.72;98865.66;4939982;29;20488;-78
2021/09/26 16:25:13;;;;;;;6.97;6.38;;;;;;;19.30;79.64;98869.56;4950152;29;20377;-78
2021/09/26 16:27:39;;;;;;;7.72;6.38;;;;;;;19.36;79.82;98874.50;4940548;29;20511;-78
2021/09/26 16:30:07;;;;;;;10.13;6.90;;;;;;;19.09;80.63;98885.47;4942788;29;20051;-85
2021/09/26 16:32:32;;;;;;;7.43;6.70;;;;;;;19.09;81.18;98885.47;4950027;29;20023;-83
2021/09/26 16:34:58;;;;;;;7.13;6.43;;;;;;;19.21;80.74;98890.13;4940546;29;20071;-83
2021/09/26 16:37:23;;;;;;;9.07;6.68;;;;;;;19.01;81.32;98885.03;4946041;29;20027;-81
2021/09/26 16:39:49;;;;;;;8.10;7.18;;;;;;;19.01;81.25;98900.81;4949719;29;20031;-83
2021/09/26 16:42:14;;;;;;;8.25;6.95;;;;;;;19.14;80.59;98901.00;4952339;28;20027;-83
2021/09/26 16:44:39;;;;;;;8.25;7.22;;;;;;;19.06;80.69;98903.19;4941058;29;20016;-74
2021/09/26 16:47:05;;;;;;;7.60;6.90;;;;;;;19.04;80.84;98905.88;4943950;29;20036;-75
2021/09/26 16:49:30;;;;;;;9.43;6.93;;;;;;;19.16;80.44;98910.53;4941192;29;20531;-75
2021/09/26 16:51:56;;;;;;;8.77;7.20;;;;;;;19.10;80.77;98910.84;4945071;29;20399;-75
2021/09/26 16:54:22;;;;;;;7.45;6.75;;;;;;;19.15;80.46;98914.09;4940543;28;20024;-73
2021/09/26 16:56:47;;;;;;;8.68;7.00;;;;;;;19.08;80.59;98907.44;4944328;28;20046;-73
2021/09/26 16:59:13;;;;;;;7.75;6.95;;;;;;;18.99;81.85;98907.88;4950108;29;20087;-73
2021/09/26 17:01:40;;;;;;;8.10;7.40;;;;;;;18.77;82.60;98917.78;4941112;28;20027;-73
2021/09/26 17:04:07;;;;;;;12.32;7.32;;;;;;;19.01;81.23;98911.31;4943990;28;20521;-73
2021/09/26 17:06:32;;;;;;;9.60;8.02;;;;;;;19.05;81.39;98906.72;4942755;28;20359;-73
2021/09/26 17:08:58;;;;;;;10.88;7.65;;;;;;;18.95;81.84;98912.47;4945056;29;20027;-76
2021/09/26 17:11:23;;;;;;;8.45;7.65;;;;;;;18.90;83.11;98913.59;4946566;29;20023;-76
2021/09/26 17:13:51;;;;;;;9.07;8.18;;;;;;;18.64;84.79;98923.56;4956590;28;20059;-74
2021/09/26 17:16:17;;;;;;;10.55;8.27;;;;;;;18.91;83.01;98931.91;4942321;28;20027;-76
2021/09/26 17:18:43;;;;;;;12.65;7.93;;;;;;;18.74;83.55;98932.72;4947607;29;20028;-74
2021/09/26 17:21:11;;;;;;;11.40;8.13;;;;;;;18.73;84.23;98925.78;4941103;29;20031;-74
2021/09/26 17:23:38;;;;;;;10.13;8.50;;;;;;;18.44;84.64;98931.56;4942201;29;20023;-74
2021/09/26 17:26:05;;;;;;;12.48;8.40;;;;;;;18.64;83.99;98934.06;4970922;28;20059;-74
2021/09/26 17:28:31;;;;;;;10.00;8.98;;;;;;;18.52;84.58;98924.19;4948182;28;20032;-71
2021/09/26 17:30:57;;;;;;;9.77;8.75;;;;;;;18.47;84.72;98926.19;4945459;28;20113;-72
2021/09/26 17:33:23;;;;;;;10.23;7.90;;;;;;;18.47;84.58;98931.44;4964997;28;20058;-72
2021/09/26 17:35:52;;;;;;;10.25;7.97;;;;;;;18.61;83.60;98928.97;4946726;28;20034;-72
2021/09/26 17:38:18;;;;;;;9.18;8.25;;;;;;;18.67;83.17;98940.97;4945458;28;20027;-72
2021/09/26 17:40:46;;;;;;;8.73;7.80;;;;;;;18.49;84.54;98940.91;4939133;29;20032;-74
2021/09/26 17:43:15;;;;;;;9.82;8.30;;;;;;;18.44;85.78;98944.69;4944033;28;20030;-74
2021/09/26 17:45:41;;;;;;;9.93;8.93;;;;;;;18.48;85.82;98948.88;4945921;29;20054;-74
2021/09/26 17:48:07;;;;;;;10.10;7.93;;;;;;;18.37;86.40;98949.38;4942976;28;20426;-74
2021/09/26 17:50:36;;;;;;;14.63;13.10;;;;;;;18.28;87.39;98951.59;4946210;29;20031;-74
2021/09/26 17:53:02;;;;;;;12.15;9.05;;;;;;;18.16;87.95;98948.59;4943574;28;20046;-75
2021/09/26 17:55:29;;;;;;;14.75;9.35;;;;;;;18.14;88.45;98954.84;4950251;28;20035;-72
2021/09/26 17:57:54;;;;;;;10.30;9.07;;;;;;;18.09;89.45;98952.44;4948933;28;20027;-71
2021/09/26 18:00:23;;;;;;;11.68;10.10;;;;;;;18.02;90.07;98966.72;4948634;28;20455;-71
2021/09/26 18:02:50;;;;;;;14.75;11.20;;;;;;;17.99;90.35;98964.25;4938741;29;20393;-71
2021/09/26 18:05:17;;;;;;;11.93;9.32;;;;;;;17.95;91.54;98966.16;4947132;28;20102;-71
2021/09/26 18:07:43;;;;;;;11.02;9.90;;;;;;;18.00;91.55;98963.31;4941975;29;20385;-71
2021/09/26 18:10:11;;;;;;;12.40;10.38;;;;;;;17.80;93.13;98961.59;4945469;29;20024;-73
2021/09/26 18:12:37;;;;;;;14.45;10.50;;;;;;;17.76;92.91;98956.56;4942163;29;20111;-73
2021/09/26 18:15:03;;;;;;;13.23;10.15;;;;;;;17.75;92.54;98958.34;4943099;28;20114;-75
2021/09/26 18:17:29;;;;;;;10.88;9.73;;;;;;;17.73;92.26;98944.44;4944241;29;20384;-75
2021/09/26 18:19:55;;;;;;;12.35;8.60;;;;;;;17.68;91.94;98954.22;4941671;29;20023;-77
2021/09/26 18:22:20;;;;;;;11.82;9.70;;;;;;;17.78;92.24;98949.47;4944928;29;20058;-74
2021/09/26 18:24:47;;;;;;;17.65;10.82;;;;;;;17.69;92.40;98953.31;4939104;29;20070;-71
2021/09/26 18:27:12;;;;;;;10.50;9.50;;;;;;;17.86;91.58;98947.38;4951618;29;20030;-72
2021/09/26 18:29:39;;;;;;;11.35;10.02;;;;;;;17.79;91.99;98943.31;4943350;29;20028;-72
2021/09/26 18:32:05;;;;;;;11.40;10.20;;;;;;;17.80;92.14;98945.88;4947747;29;20023;-73
2021/09/26 18:34:31;;;;;;;11.48;9.70;;;;;;;17.81;91.63;98946.72;4937510;28;20031;-73
2021/09/26 18:36:56;;;;;;;10.05;8.30;;;;;;;18.26;89.29;98948.16;4945455;29;20019;-68